createdAt,value
2018-02-27T00:02:18.054Z,4.03
2018-02-27T00:04:51.650Z,3.20
2018-02-27T00:07:24.161Z,3.43
2018-02-27T00:09:56.688Z,3.70
2018-02-27T00:12:29.174Z,4.00
2018-02-27T00:15:01.684Z,3.90
2018-02-27T00:17:34.189Z,3.53
2018-02-27T00:20:06.706Z,3.23
2018-02-27T00:22:39.215Z,3.90
2018-02-27T00:25:11.740Z,3.17
2018-02-27T00:27:44.245Z,3.50
2018-02-27T00:30:16.766Z,3.60
2018-02-27T00:32:49.264Z,4.40
2018-02-27T00:35:22.748Z,3.47
2018-02-27T00:37:55.281Z,5.63
2018-02-27T00:40:27.803Z,3.73
2018-02-27T00:43:00.299Z,4.33
2018-02-27T00:45:32.812Z,3.53
2018-02-27T00:48:05.297Z,4.13
2018-02-27T00:50:37.812Z,3.90
2018-02-27T00:53:10.312Z,4.13
2018-02-27T00:55:42.854Z,4.03
2018-02-27T00:58:15.356Z,3.50
2018-02-27T01:00:47.876Z,3.43
2018-02-27T01:03:20.382Z,3.70
2018-02-27T01:05:52.902Z,4.50
2018-02-27T01:08:25.414Z,3.77
2018-02-27T01:10:58.042Z,4.60
2018-02-27T01:13:30.537Z,3.80
2018-02-27T01:16:03.076Z,6.80
2018-02-27T01:18:35.611Z,3.80
2018-02-27T01:21:08.181Z,5.67
2018-02-27T01:23:40.643Z,3.00
2018-02-27T01:26:13.153Z,4.00
2018-02-27T01:31:24.506Z,3.83
2018-02-27T01:33:56.995Z,3.97
2018-02-27T01:36:29.517Z,4.50
2018-02-27T01:39:02.020Z,3.60
2018-02-27T01:41:34.539Z,3.17
2018-02-27T01:44:07.053Z,3.97
2018-02-27T01:46:39.580Z,4.23
2018-02-27T01:49:12.074Z,4.37
2018-02-27T01:51:44.627Z,3.47
2018-02-27T01:54:17.118Z,3.77
2018-02-27T01:56:49.639Z,4.17
2018-02-27T01:59:22.137Z,3.63
2018-02-27T02:01:54.780Z,3.97
2018-02-27T02:04:27.285Z,4.30
2018-02-27T02:06:59.803Z,3.10
2018-02-27T02:09:32.292Z,3.43
2018-02-27T02:12:04.800Z,3.50
2018-02-27T02:14:37.313Z,5.80
2018-02-27T02:17:09.822Z,4.00
2018-02-27T02:19:42.370Z,4.63
2018-02-27T02:22:14.884Z,3.87
2018-02-27T02:24:47.379Z,3.60
2018-02-27T02:27:19.892Z,3.90
2018-02-27T02:29:52.399Z,3.60
2018-02-27T02:32:24.913Z,3.83
2018-02-27T02:34:57.404Z,4.83
2018-02-27T02:37:29.937Z,4.30
2018-02-27T02:40:02.501Z,5.03
2018-02-27T02:42:35.026Z,3.83
2018-02-27T02:45:07.530Z,4.20
2018-02-27T02:47:40.057Z,4.40
2018-02-27T02:50:12.569Z,4.20
2018-02-27T02:52:45.101Z,4.40
2018-02-27T02:55:17.601Z,4.90
2018-02-27T02:57:50.119Z,3.93
2018-02-27T03:00:22.637Z,3.93
2018-02-27T03:02:55.178Z,3.73
2018-02-27T03:05:27.696Z,4.43
2018-02-27T03:08:00.208Z,3.80
2018-02-27T03:10:32.714Z,5.87
2018-02-27T03:13:05.232Z,3.57
2018-02-27T03:15:37.737Z,4.00
2018-02-27T03:18:10.257Z,3.50
2018-02-27T03:20:42.756Z,4.07
2018-02-27T03:23:15.283Z,4.20
2018-02-27T03:25:47.779Z,4.03
2018-02-27T03:28:20.292Z,4.00
2018-02-27T03:30:52.781Z,4.87
2018-02-27T03:33:25.300Z,4.00
2018-02-27T03:35:57.816Z,4.90
2018-02-27T03:38:30.339Z,4.23
2018-02-27T03:41:02.852Z,4.20
2018-02-27T03:43:35.368Z,4.77
2018-02-27T03:46:07.898Z,4.43
2018-02-27T03:48:40.422Z,4.27
2018-02-27T03:51:12.920Z,4.33
2018-02-27T03:53:45.440Z,3.47
2018-02-27T03:56:17.997Z,4.20
2018-02-27T03:58:50.495Z,3.40
2018-02-27T04:01:23.044Z,3.93
2018-02-27T04:03:55.543Z,4.10
2018-02-27T04:06:28.054Z,7.17
2018-02-27T04:09:00.558Z,15.40
2018-02-27T04:11:33.080Z,12.87
2018-02-27T04:14:05.587Z,9.53
2018-02-27T04:16:38.153Z,7.17
2018-02-27T04:19:10.660Z,5.37
2018-02-27T04:21:43.237Z,6.10
2018-02-27T04:24:15.745Z,6.80
2018-02-27T04:26:48.275Z,6.87
2018-02-27T04:29:20.781Z,7.20
2018-02-27T04:31:53.302Z,7.93
2018-02-27T04:34:25.791Z,5.13
2018-02-27T04:36:58.309Z,6.00
2018-02-27T04:39:30.810Z,5.40
2018-02-27T04:42:03.333Z,6.53
2018-02-27T04:44:35.853Z,6.90
2018-02-27T04:47:08.379Z,8.33
2018-02-27T04:49:40.875Z,5.63
2018-02-27T04:52:13.422Z,5.07
2018-02-27T04:54:45.920Z,7.13
2018-02-27T04:57:18.485Z,6.00
2018-02-27T04:59:51.017Z,6.03
2018-02-27T05:02:23.550Z,5.03
2018-02-27T05:04:56.048Z,5.70
2018-02-27T05:07:28.571Z,5.43
2018-02-27T05:10:01.073Z,5.90
2018-02-27T05:12:33.622Z,5.43
2018-02-27T05:15:06.156Z,4.87
2018-02-27T05:17:38.677Z,4.53
2018-02-27T05:20:11.482Z,4.77
2018-02-27T05:22:44.006Z,4.33
2018-02-27T05:25:16.516Z,6.20
2018-02-27T05:27:49.063Z,5.23
2018-02-27T05:30:21.561Z,5.70
2018-02-27T05:32:54.098Z,7.27
2018-02-27T05:35:26.606Z,4.97
2018-02-27T05:37:59.127Z,4.90
2018-02-27T05:40:31.633Z,5.30
2018-02-27T05:43:04.159Z,4.87
2018-02-27T05:45:36.651Z,6.13
2018-02-27T05:48:09.176Z,6.53
2018-02-27T05:50:41.677Z,6.20
2018-02-27T05:53:14.228Z,8.07
2018-02-27T05:55:46.746Z,6.10
2018-02-27T05:58:19.292Z,7.57
2018-02-27T06:00:51.807Z,8.13
2018-02-27T06:03:24.354Z,5.70
2018-02-27T06:05:56.877Z,7.33
2018-02-27T06:08:29.417Z,7.60
2018-02-27T06:11:01.938Z,6.10
2018-02-27T06:13:34.455Z,5.53
2018-02-27T06:16:06.963Z,6.23
2018-02-27T06:18:39.500Z,6.30
2018-02-27T06:21:11.994Z,6.40
2018-02-27T06:23:44.544Z,7.50
2018-02-27T06:26:17.052Z,11.30
2018-02-27T06:28:52.660Z,6.90
2018-02-27T06:31:25.166Z,7.23
2018-02-27T06:33:57.702Z,8.33
2018-02-27T06:36:30.202Z,9.30
2018-02-27T06:39:02.736Z,6.37
2018-02-27T06:41:35.251Z,6.10
2018-02-27T06:44:07.777Z,5.83
2018-02-27T06:46:40.290Z,5.60
2018-02-27T06:49:12.817Z,8.00
2018-02-27T06:51:45.319Z,6.67
2018-02-27T06:54:17.857Z,8.60
2018-02-27T06:56:50.375Z,6.73
2018-02-27T06:59:22.921Z,7.40
2018-02-27T07:01:55.443Z,10.37
2018-02-27T07:04:27.966Z,9.53
2018-02-27T07:07:00.469Z,7.17
2018-02-27T07:09:33.006Z,6.47
2018-02-27T07:12:05.525Z,10.00
2018-02-27T07:14:38.056Z,7.57
2018-02-27T07:17:10.564Z,9.20
2018-02-27T07:19:43.089Z,7.37
2018-02-27T07:22:15.602Z,8.00
2018-02-27T07:24:48.156Z,8.37
2018-02-27T07:27:20.662Z,7.80
2018-02-27T07:29:53.299Z,9.70
2018-02-27T07:32:25.819Z,12.60
2018-02-27T07:34:58.369Z,8.93
2018-02-27T07:37:30.871Z,11.90
2018-02-27T07:40:03.404Z,10.90
2018-02-27T07:42:35.935Z,10.13
2018-02-27T07:45:08.489Z,8.07
2018-02-27T07:47:41.004Z,21.30
2018-02-27T07:50:13.542Z,15.97
2018-02-27T07:52:46.078Z,10.03
2018-02-27T07:55:18.595Z,8.10
2018-02-27T07:57:51.187Z,10.47
2018-02-27T08:00:23.704Z,13.47
2018-02-27T08:02:56.251Z,14.83
2018-02-27T08:05:28.763Z,11.40
2018-02-27T08:08:01.286Z,12.67
2018-02-27T08:10:33.826Z,12.60
2018-02-27T08:13:06.379Z,11.30
2018-02-27T08:15:38.906Z,11.50
2018-02-27T08:18:11.437Z,11.37
2018-02-27T08:20:43.954Z,12.07
2018-02-27T08:23:16.493Z,13.57
2018-02-27T08:25:49.016Z,10.57
2018-02-27T08:28:21.560Z,14.13
2018-02-27T08:30:54.083Z,9.97
2018-02-27T08:33:28.616Z,8.47
2018-02-27T08:36:01.117Z,8.07
2018-02-27T08:38:33.663Z,8.10
2018-02-27T08:41:06.176Z,6.67
2018-02-27T08:43:38.715Z,7.20
2018-02-27T08:46:11.214Z,6.20
2018-02-27T08:48:43.748Z,6.60
2018-02-27T08:51:16.254Z,7.53
2018-02-27T08:53:48.778Z,5.47
2018-02-27T08:56:21.276Z,5.67
2018-02-27T08:58:53.788Z,6.10
2018-02-27T09:01:26.300Z,4.67
2018-02-27T09:03:58.819Z,5.00
2018-02-27T09:06:31.320Z,5.13
2018-02-27T09:09:03.845Z,5.37
2018-02-27T09:11:36.353Z,5.00
2018-02-27T09:14:08.888Z,4.83
2018-02-27T09:16:41.404Z,5.67
2018-02-27T09:19:13.957Z,4.77
2018-02-27T09:21:46.435Z,4.33
2018-02-27T09:26:57.806Z,4.50
2018-02-27T09:29:30.324Z,4.20
2018-02-27T09:32:02.819Z,6.20
2018-02-27T09:34:35.357Z,4.33
2018-02-27T09:37:07.847Z,5.20
2018-02-27T09:39:40.359Z,4.23
2018-02-27T09:42:12.849Z,4.27
2018-02-27T09:44:45.379Z,4.80
2018-02-27T09:47:17.885Z,4.30
2018-02-27T09:49:50.404Z,5.50
2018-02-27T09:52:22.888Z,4.73
2018-02-27T09:54:55.396Z,4.70
2018-02-27T09:57:27.890Z,4.07
2018-02-27T10:00:00.432Z,4.80
2018-02-27T10:02:32.941Z,4.50
2018-02-27T10:05:05.449Z,4.30
2018-02-27T10:07:37.960Z,3.87
2018-02-27T10:10:10.486Z,4.90
2018-02-27T10:12:42.979Z,5.67
2018-02-27T10:15:15.490Z,4.00
2018-02-27T10:17:48.067Z,4.00
2018-02-27T10:20:20.625Z,3.87
2018-02-27T10:22:53.182Z,3.60
2018-02-27T10:25:25.720Z,3.17
2018-02-27T10:27:59.139Z,2.40
2018-02-27T10:30:33.621Z,2.13
2018-02-27T10:33:06.109Z,2.67
2018-02-27T10:35:38.619Z,1.97
2018-02-27T10:38:11.168Z,2.57
2018-02-27T10:40:43.698Z,2.20
2018-02-27T10:43:16.216Z,4.23
2018-02-27T10:45:48.733Z,4.77
2018-02-27T10:48:21.248Z,2.57
2018-02-27T10:50:53.811Z,2.07
2018-02-27T10:53:26.313Z,1.80
2018-02-27T10:55:58.834Z,2.30
2018-02-27T10:58:31.328Z,2.83
2018-02-27T11:01:04.899Z,2.90
2018-02-27T11:03:37.398Z,3.33
2018-02-27T11:06:09.952Z,4.00
2018-02-27T11:08:42.452Z,4.83
2018-02-27T11:11:14.973Z,3.37
2018-02-27T11:13:47.470Z,2.80
2018-02-27T11:16:19.989Z,3.03
2018-02-27T11:18:52.577Z,4.03
2018-02-27T11:21:25.095Z,3.63
2018-02-27T11:23:57.650Z,4.67
2018-02-27T11:26:30.153Z,2.87
2018-02-27T11:29:02.705Z,5.63
2018-02-27T11:31:35.200Z,3.63
2018-02-27T11:34:07.725Z,2.57
2018-02-27T11:36:40.236Z,2.97
2018-02-27T11:39:12.820Z,2.37
2018-02-27T11:41:45.306Z,6.03
2018-02-27T11:44:17.898Z,11.23
2018-02-27T11:46:50.390Z,3.93
2018-02-27T11:49:22.914Z,2.70
2018-02-27T11:51:55.425Z,5.10
2018-02-27T11:54:27.966Z,2.53
2018-02-27T11:57:01.540Z,3.17
2018-02-27T11:59:34.079Z,2.30
2018-02-27T12:02:06.568Z,2.00
2018-02-27T12:04:39.081Z,2.30
2018-02-27T12:07:11.592Z,2.50
2018-02-27T12:09:44.122Z,4.47
2018-02-27T12:12:16.636Z,3.40
2018-02-27T12:14:49.143Z,3.60
2018-02-27T12:17:21.644Z,3.63
2018-02-27T12:19:54.169Z,3.27
2018-02-27T12:22:26.664Z,3.30
2018-02-27T12:24:59.174Z,3.90
2018-02-27T12:27:31.694Z,3.03
2018-02-27T12:30:04.251Z,3.33
2018-02-27T12:32:36.757Z,3.47
2018-02-27T12:35:09.310Z,3.90
2018-02-27T12:37:41.834Z,4.53
2018-02-27T12:40:14.355Z,2.63
2018-02-27T12:42:46.875Z,3.03
2018-02-27T12:45:19.404Z,3.07
2018-02-27T12:47:51.903Z,3.10
2018-02-27T12:50:24.406Z,2.90
2018-02-27T12:52:57.365Z,2.60
2018-02-27T12:55:29.870Z,7.37
2018-02-27T12:58:02.357Z,2.80
2018-02-27T13:00:34.880Z,4.10
2018-02-27T13:03:07.843Z,3.00
2018-02-27T13:05:40.359Z,2.60
2018-02-27T13:08:12.864Z,2.97
2018-02-27T13:10:45.372Z,2.50
2018-02-27T13:13:17.879Z,3.23
2018-02-27T13:15:50.379Z,3.13
2018-02-27T13:18:23.519Z,3.73
2018-02-27T13:20:56.045Z,4.77
2018-02-27T13:23:28.544Z,2.70
2018-02-27T13:26:01.052Z,2.10
2018-02-27T13:28:33.551Z,2.30
2018-02-27T13:31:06.072Z,2.27
2018-02-27T13:33:38.567Z,1.90
2018-02-27T13:36:11.092Z,2.27
2018-02-27T13:38:43.590Z,2.23
2018-02-27T13:41:16.122Z,2.63
2018-02-27T13:43:48.623Z,1.80
2018-02-27T13:46:21.145Z,2.53
2018-02-27T13:48:53.649Z,2.27
2018-02-27T13:51:26.181Z,2.67
2018-02-27T13:53:58.694Z,2.33
2018-02-27T13:56:31.217Z,1.90
2018-02-27T13:59:03.729Z,3.33
2018-02-27T14:01:36.277Z,3.50
2018-02-27T14:04:08.786Z,3.17
2018-02-27T14:06:41.298Z,2.67
2018-02-27T14:09:13.787Z,2.97
2018-02-27T14:11:46.300Z,2.87
2018-02-27T14:14:18.802Z,1.73
2018-02-27T14:16:51.319Z,2.70
2018-02-27T14:19:23.828Z,2.60
2018-02-27T14:21:56.341Z,3.20
2018-02-27T14:24:28.829Z,3.73
2018-02-27T14:27:01.354Z,5.57
2018-02-27T14:29:33.853Z,4.80
2018-02-27T14:32:06.383Z,4.20
2018-02-27T14:34:38.879Z,4.10
2018-02-27T14:37:11.393Z,4.73
2018-02-27T14:39:43.911Z,3.97
2018-02-27T14:42:16.429Z,4.60
2018-02-27T14:44:48.942Z,12.33
2018-02-27T14:47:21.475Z,15.83
2018-02-27T14:49:54.049Z,13.50
2018-02-27T14:52:26.577Z,11.07
2018-02-27T14:54:59.071Z,3.60
2018-02-27T14:57:31.593Z,2.43
2018-02-27T15:00:04.091Z,2.00
2018-02-27T15:02:37.583Z,2.13
2018-02-27T15:05:10.088Z,2.47
2018-02-27T15:07:42.602Z,1.70
2018-02-27T15:10:15.124Z,1.83
2018-02-27T15:12:47.617Z,2.33
2018-02-27T15:15:20.180Z,2.80
2018-02-27T15:17:52.669Z,2.23
2018-02-27T15:20:25.186Z,1.77
2018-02-27T15:22:57.684Z,3.07
2018-02-27T15:25:30.187Z,3.40
2018-02-27T15:28:02.753Z,7.43
2018-02-27T15:30:35.268Z,2.27
2018-02-27T15:33:07.770Z,3.93
2018-02-27T15:35:40.292Z,9.20
2018-02-27T15:38:12.791Z,11.57
2018-02-27T15:40:45.321Z,5.80
2018-02-27T15:43:17.843Z,3.67
2018-02-27T15:45:50.442Z,8.83
2018-02-27T15:48:22.932Z,3.23
2018-02-27T15:50:55.461Z,5.33
2018-02-27T15:53:27.963Z,3.40
2018-02-27T15:56:00.578Z,4.50
2018-02-27T15:58:33.070Z,3.30
2018-02-27T16:01:05.601Z,3.97
2018-02-27T16:03:38.101Z,2.83
2018-02-27T16:06:11.363Z,3.40
2018-02-27T16:08:44.952Z,4.50
2018-02-27T16:11:17.967Z,3.20
2018-02-27T16:13:51.391Z,4.03
2018-02-27T16:16:24.965Z,4.20
2018-02-27T16:18:57.468Z,3.83
2018-02-27T16:21:29.991Z,4.03
2018-02-27T16:24:02.488Z,8.13
2018-02-27T16:26:35.015Z,6.43
2018-02-27T16:29:07.507Z,5.87
2018-02-27T16:31:40.019Z,5.03
2018-02-27T16:34:12.521Z,3.77
2018-02-27T16:36:45.082Z,4.87
2018-02-27T16:39:17.629Z,4.00
2018-02-27T16:41:50.237Z,3.90
2018-02-27T16:44:22.830Z,4.87
2018-02-27T16:46:55.357Z,4.97
2018-02-27T16:49:27.858Z,9.60
2018-02-27T16:52:00.459Z,6.53
2018-02-27T16:54:33.687Z,5.47
2018-02-27T16:57:06.297Z,3.67
2018-02-27T16:59:38.900Z,3.87
2018-02-27T17:02:11.432Z,2.73
2018-02-27T17:04:44.008Z,3.47
2018-02-27T17:07:16.530Z,2.70
2018-02-27T17:09:49.031Z,3.70
2018-02-27T17:12:21.605Z,2.97
2018-02-27T17:14:54.113Z,4.10
2018-02-27T17:17:26.715Z,3.00
2018-02-27T17:19:59.236Z,4.33
2018-02-27T17:22:31.757Z,7.30
2018-02-27T17:25:04.251Z,6.77
2018-02-27T17:27:36.768Z,4.40
2018-02-27T17:30:09.278Z,4.00
2018-02-27T17:32:41.816Z,6.33
2018-02-27T17:35:14.328Z,4.90
2018-02-27T17:37:46.866Z,5.40
2018-02-27T17:40:19.374Z,4.50
2018-02-27T17:42:51.905Z,7.03
2018-02-27T17:45:24.405Z,5.23
2018-02-27T17:47:56.945Z,4.97
2018-02-27T17:50:29.446Z,5.83
2018-02-27T17:53:02.179Z,5.60
2018-02-27T17:55:34.697Z,9.73
2018-02-27T17:58:07.276Z,7.30
2018-02-27T18:00:39.787Z,8.07
2018-02-27T18:03:12.397Z,11.83
2018-02-27T18:05:44.887Z,9.23
2018-02-27T18:08:17.431Z,11.50
2018-02-27T18:10:49.935Z,9.63
2018-02-27T18:13:22.461Z,11.43
2018-02-27T18:15:54.965Z,12.17
2018-02-27T18:18:27.489Z,16.87
2018-02-27T18:20:59.992Z,12.20
2018-02-27T18:23:32.520Z,11.53
2018-02-27T18:26:05.035Z,13.60
2018-02-27T18:28:37.571Z,15.83
2018-02-27T18:31:10.089Z,13.70
2018-02-27T18:33:43.628Z,12.50
2018-02-27T18:36:16.130Z,14.77
2018-02-27T18:38:48.661Z,16.63
2018-02-27T18:41:21.245Z,13.50
2018-02-27T18:43:53.878Z,13.80
2018-02-27T18:46:26.329Z,14.43
2018-02-27T18:48:58.837Z,14.77
2018-02-27T18:51:31.382Z,19.53
2018-02-27T18:54:03.900Z,14.93
2018-02-27T18:56:36.437Z,17.87
2018-02-27T18:59:08.974Z,18.40
2018-02-27T19:01:41.495Z,21.10
2018-02-27T19:04:14.012Z,15.93
2018-02-27T19:06:46.997Z,14.83
2018-02-27T19:09:19.640Z,14.83
2018-02-27T19:11:52.212Z,16.13
2018-02-27T19:14:24.749Z,16.77
2018-02-27T19:16:57.374Z,18.13
2018-02-27T19:19:29.901Z,18.00
2018-02-27T19:22:02.514Z,17.77
2018-02-27T19:24:35.020Z,16.60
2018-02-27T19:27:07.575Z,17.63
2018-02-27T19:29:40.986Z,21.87
2018-02-27T19:32:13.714Z,17.97
2018-02-27T19:34:46.268Z,20.77
2018-02-27T19:37:18.803Z,18.43
2018-02-27T19:39:51.354Z,22.03
2018-02-27T19:42:23.974Z,19.87
2018-02-27T19:44:56.494Z,21.10
2018-02-27T19:47:29.113Z,18.73
2018-02-27T19:50:01.637Z,12.53
2018-02-27T19:52:34.307Z,16.07
2018-02-27T19:55:07.032Z,14.53
2018-02-27T19:57:39.583Z,12.83
2018-02-27T20:00:12.081Z,13.17
2018-02-27T20:02:45.922Z,11.57
2018-02-27T20:05:18.976Z,13.77
2018-02-27T20:07:52.229Z,10.27
2018-02-27T20:10:25.132Z,13.33
2018-02-27T20:12:58.752Z,9.53
2018-02-27T20:15:31.268Z,11.50
2018-02-27T20:18:09.349Z,10.43
2018-02-27T20:20:41.863Z,13.10
2018-02-27T20:23:19.818Z,9.77
2018-02-27T20:25:52.352Z,17.07
2018-02-27T20:28:30.632Z,11.57
2018-02-27T20:31:03.211Z,8.00
2018-02-27T20:33:35.772Z,13.87
2018-02-27T20:36:08.292Z,12.10
2018-02-27T20:38:46.436Z,13.77
2018-02-27T20:41:18.971Z,7.90
2018-02-27T20:43:51.518Z,12.27
2018-02-27T20:46:24.031Z,13.10
2018-02-27T20:48:56.594Z,5.77
2018-02-27T20:51:29.114Z,11.90
2018-02-27T20:54:01.653Z,13.27
2018-02-27T20:56:34.158Z,24.60
2018-02-27T20:59:06.680Z,31.30
2018-02-27T21:01:39.195Z,11.40
2018-02-27T21:04:11.720Z,9.83
2018-02-27T21:06:46.343Z,16.07
2018-02-27T21:09:18.880Z,21.67
2018-02-27T21:11:51.420Z,14.40
2018-02-27T21:14:23.948Z,12.60
2018-02-27T21:16:56.486Z,11.60
2018-02-27T21:19:29.017Z,14.17
2018-02-27T21:22:01.529Z,16.53
2018-02-27T21:24:34.075Z,14.83
2018-02-27T21:27:06.632Z,13.43
2018-02-27T21:29:39.180Z,15.57
2018-02-27T21:32:11.676Z,8.90
2018-02-27T21:34:44.237Z,16.63
2018-02-27T21:37:16.749Z,19.97
2018-02-27T21:39:49.297Z,15.73
2018-02-27T21:42:21.806Z,19.80
2018-02-27T21:44:54.324Z,10.83
2018-02-27T21:47:26.873Z,6.57
2018-02-27T21:49:59.438Z,9.83
2018-02-27T21:52:32.031Z,14.80
2018-02-27T21:55:04.544Z,14.93
2018-02-27T21:57:37.069Z,5.43
2018-02-27T22:00:09.613Z,14.30
2018-02-27T22:02:42.158Z,10.43
2018-02-27T22:05:14.668Z,15.90
2018-02-27T22:07:47.868Z,17.33
2018-02-27T22:10:20.398Z,17.07
2018-02-27T22:12:52.938Z,17.27
2018-02-27T22:15:25.459Z,18.20
2018-02-27T22:17:57.987Z,20.80
2018-02-27T22:20:30.501Z,15.33
2018-02-27T22:23:03.031Z,16.80
2018-02-27T22:25:35.729Z,14.63
2018-02-27T22:28:08.324Z,17.67
2018-02-27T22:30:40.829Z,12.00
2018-02-27T22:33:13.373Z,16.00
2018-02-27T22:35:45.896Z,11.87
2018-02-27T22:38:18.418Z,9.60
2018-02-27T22:40:50.917Z,5.83
2018-02-27T22:43:23.457Z,6.80
2018-02-27T22:45:55.966Z,9.17
2018-02-27T22:48:29.443Z,8.53
2018-02-27T22:51:01.980Z,8.23
2018-02-27T22:53:34.515Z,9.40
2018-02-27T22:56:07.038Z,8.83
2018-02-27T22:58:39.574Z,10.67
2018-02-27T23:01:12.093Z,8.60
2018-02-27T23:03:44.981Z,9.87
2018-02-27T23:06:17.519Z,10.80
2018-02-27T23:08:50.046Z,10.87
2018-02-27T23:11:22.564Z,9.43
2018-02-27T23:13:55.105Z,6.47
2018-02-27T23:16:27.622Z,7.83
2018-02-27T23:19:00.163Z,10.80
2018-02-27T23:21:32.693Z,11.90
2018-02-27T23:24:05.329Z,6.03
2018-02-27T23:26:38.029Z,13.70
2018-02-27T23:29:10.737Z,9.30
2018-02-27T23:31:45.220Z,7.87
2018-02-27T23:34:17.835Z,13.87
2018-02-27T23:36:50.382Z,13.70
2018-02-27T23:39:22.929Z,19.47
2018-02-27T23:41:55.451Z,12.00
2018-02-27T23:44:28.091Z,8.47
2018-02-27T23:47:00.604Z,10.93
2018-02-27T23:49:33.149Z,9.97
2018-02-27T23:52:05.659Z,8.73
2018-02-27T23:54:38.215Z,10.20
2018-02-27T23:57:10.739Z,10.10
2018-02-27T23:59:43.263Z,11.87
